sensor_id;sensor_type;location;lat;lon;timestamp;temperature;humidity
12700;DHT22;6414;49.570;6.060;2022-12-24T00:02:06;9.00;99.90
12700;DHT22;6414;49.570;6.060;2022-12-24T00:04:51;8.90;99.90
12700;DHT22;6414;49.570;6.060;2022-12-24T00:07:38;8.80;99.90
12700;DHT22;6414;49.570;6.060;2022-12-24T00:10:23;8.80;99.90
12700;DHT22;6414;49.570;6.060;2022-12-24T00:13:09;8.80;99.90
12700;DHT22;6414;49.570;6.060;2022-12-24T00:15:54;8.90;99.90
12700;DHT22;6414;49.570;6.060;2022-12-24T00:18:40;8.80;99.90
12700;DHT22;6414;49.570;6.060;2022-12-24T00:21:26;8.90;99.90
12700;DHT22;6414;49.570;6.060;2022-12-24T00:24:12;9.00;99.90
12700;DHT22;6414;49.570;6.060;2022-12-24T00:26:58;9.10;99.90
12700;DHT22;6414;49.570;6.060;2022-12-24T00:29:43;9.10;99.90
12700;DHT22;6414;49.570;6.060;2022-12-24T00:32:28;9.10;99.90
12700;DHT22;6414;49.570;6.060;2022-12-24T00:35:14;9.20;99.90
12700;DHT22;6414;49.570;6.060;2022-12-24T00:37:59;9.20;99.90
12700;DHT22;6414;49.570;6.060;2022-12-24T00:40:45;9.20;99.90
12700;DHT22;6414;49.570;6.060;2022-12-24T00:43:31;9.30;99.90
12700;DHT22;6414;49.570;6.060;2022-12-24T00:46:16;9.20;99.90
12700;DHT22;6414;49.570;6.060;2022-12-24T00:49:02;9.20;99.90
12700;DHT22;6414;49.570;6.060;2022-12-24T00:51:48;9.20;99.90
12700;DHT22;6414;49.570;6.060;2022-12-24T00:54:34;9.20;99.90
12700;DHT22;6414;49.570;6.060;2022-12-24T00:57:20;9.20;99.90
12700;DHT22;6414;49.570;6.060;2022-12-24T01:00:07;9.30;99.90
12700;DHT22;6414;49.570;6.060;2022-12-24T01:02:52;9.20;99.90
12700;DHT22;6414;49.570;6.060;2022-12-24T01:05:38;9.20;99.90
12700;DHT22;6414;49.570;6.060;2022-12-24T01:08:23;9.30;99.90
12700;DHT22;6414;49.570;6.060;2022-12-24T01:11:09;9.30;99.90
12700;DHT22;6414;49.570;6.060;2022-12-24T01:13:54;9.30;99.90
12700;DHT22;6414;49.570;6.060;2022-12-24T01:16:40;9.30;99.90
12700;DHT22;6414;49.570;6.060;2022-12-24T01:19:26;9.30;99.90
12700;DHT22;6414;49.570;6.060;2022-12-24T01:22:12;9.30;99.90
12700;DHT22;6414;49.570;6.060;2022-12-24T01:24:58;9.30;99.90
12700;DHT22;6414;49.570;6.060;2022-12-24T01:27:44;9.30;99.90
12700;DHT22;6414;49.570;6.060;2022-12-24T01:30:29;9.40;99.90
12700;DHT22;6414;49.570;6.060;2022-12-24T01:33:15;9.30;99.90
12700;DHT22;6414;49.570;6.060;2022-12-24T01:36:02;9.20;99.90
12700;DHT22;6414;49.570;6.060;2022-12-24T01:38:47;9.20;99.90
12700;DHT22;6414;49.570;6.060;2022-12-24T01:41:32;9.20;99.90
12700;DHT22;6414;49.570;6.060;2022-12-24T01:44:40;9.30;99.90
12700;DHT22;6414;49.570;6.060;2022-12-24T01:47:28;9.30;99.90
12700;DHT22;6414;49.570;6.060;2022-12-24T01:50:13;9.20;99.90
12700;DHT22;6414;49.570;6.060;2022-12-24T01:52:57;9.20;99.90
12700;DHT22;6414;49.570;6.060;2022-12-24T01:55:44;9.20;99.90
12700;DHT22;6414;49.570;6.060;2022-12-24T01:58:29;9.30;99.90
12700;DHT22;6414;49.570;6.060;2022-12-24T02:01:16;9.30;99.90
12700;DHT22;6414;49.570;6.060;2022-12-24T02:04:08;9.30;99.90
12700;DHT22;6414;49.570;6.060;2022-12-24T02:06:49;9.30;99.90
12700;DHT22;6414;49.570;6.060;2022-12-24T02:09:35;9.30;99.90
12700;DHT22;6414;49.570;6.060;2022-12-24T02:12:21;9.30;99.90
12700;DHT22;6414;49.570;6.060;2022-12-24T02:15:07;9.30;99.90
12700;DHT22;6414;49.570;6.060;2022-12-24T02:18:03;9.30;99.90
12700;DHT22;6414;49.570;6.060;2022-12-24T02:21:09;9.30;99.90
12700;DHT22;6414;49.570;6.060;2022-12-24T02:24:18;9.40;99.90
12700;DHT22;6414;49.570;6.060;2022-12-24T02:27:20;9.30;99.90
12700;DHT22;6414;49.570;6.060;2022-12-24T02:30:17;9.40;99.90
12700;DHT22;6414;49.570;6.060;2022-12-24T02:33:49;9.40;99.90
12700;DHT22;6414;49.570;6.060;2022-12-24T02:35:48;9.30;99.90
12700;DHT22;6414;49.570;6.060;2022-12-24T02:38:33;9.40;99.90
12700;DHT22;6414;49.570;6.060;2022-12-24T02:41:19;9.40;99.90
12700;DHT22;6414;49.570;6.060;2022-12-24T02:44:02;9.40;99.90
12700;DHT22;6414;49.570;6.060;2022-12-24T02:46:48;9.50;99.90
12700;DHT22;6414;49.570;6.060;2022-12-24T02:49:34;9.50;99.90
12700;DHT22;6414;49.570;6.060;2022-12-24T02:52:35;9.40;99.90
12700;DHT22;6414;49.570;6.060;2022-12-24T03:07:25;9.50;99.90
12700;DHT22;6414;49.570;6.060;2022-12-24T03:10:13;9.50;99.90
12700;DHT22;6414;49.570;6.060;2022-12-24T03:13:03;9.50;99.90
12700;DHT22;6414;49.570;6.060;2022-12-24T03:15:47;9.50;99.90
12700;DHT22;6414;49.570;6.060;2022-12-24T03:18:33;9.50;99.90
12700;DHT22;6414;49.570;6.060;2022-12-24T03:21:23;9.50;99.90
12700;DHT22;6414;49.570;6.060;2022-12-24T03:24:07;9.50;99.90
12700;DHT22;6414;49.570;6.060;2022-12-24T03:26:52;9.50;99.90
12700;DHT22;6414;49.570;6.060;2022-12-24T03:29:38;9.50;99.90
12700;DHT22;6414;49.570;6.060;2022-12-24T03:32:27;9.50;99.90
12700;DHT22;6414;49.570;6.060;2022-12-24T03:35:10;9.50;99.90
12700;DHT22;6414;49.570;6.060;2022-12-24T03:37:56;9.40;99.90
12700;DHT22;6414;49.570;6.060;2022-12-24T03:40:41;9.50;99.90
12700;DHT22;6414;49.570;6.060;2022-12-24T03:43:27;9.40;99.90
12700;DHT22;6414;49.570;6.060;2022-12-24T03:46:13;9.50;99.90
12700;DHT22;6414;49.570;6.060;2022-12-24T03:48:58;9.50;99.90
12700;DHT22;6414;49.570;6.060;2022-12-24T03:51:44;9.50;99.90
12700;DHT22;6414;49.570;6.060;2022-12-24T03:54:30;9.40;99.90
12700;DHT22;6414;49.570;6.060;2022-12-24T03:57:15;9.50;99.90
12700;DHT22;6414;49.570;6.060;2022-12-24T04:00:03;9.40;99.90
12700;DHT22;6414;49.570;6.060;2022-12-24T04:02:47;9.40;99.90
12700;DHT22;6414;49.570;6.060;2022-12-24T04:05:32;9.50;99.90
12700;DHT22;6414;49.570;6.060;2022-12-24T04:08:18;9.40;99.90
12700;DHT22;6414;49.570;6.060;2022-12-24T04:11:04;9.40;99.90
12700;DHT22;6414;49.570;6.060;2022-12-24T04:13:50;9.40;99.90
12700;DHT22;6414;49.570;6.060;2022-12-24T04:16:36;9.40;99.90
12700;DHT22;6414;49.570;6.060;2022-12-24T04:19:22;9.50;99.90
12700;DHT22;6414;49.570;6.060;2022-12-24T04:22:08;9.40;99.90
12700;DHT22;6414;49.570;6.060;2022-12-24T04:24:54;9.40;99.90
12700;DHT22;6414;49.570;6.060;2022-12-24T04:27:39;9.40;99.90
12700;DHT22;6414;49.570;6.060;2022-12-24T04:30:25;9.50;99.90
12700;DHT22;6414;49.570;6.060;2022-12-24T04:33:11;9.40;99.90
12700;DHT22;6414;49.570;6.060;2022-12-24T04:35:57;9.40;99.90
12700;DHT22;6414;49.570;6.060;2022-12-24T04:38:42;9.40;99.90
12700;DHT22;6414;49.570;6.060;2022-12-24T04:41:29;9.40;99.90
12700;DHT22;6414;49.570;6.060;2022-12-24T04:44:14;9.40;99.90
12700;DHT22;6414;49.570;6.060;2022-12-24T04:47:00;9.40;99.90
12700;DHT22;6414;49.570;6.060;2022-12-24T04:49:47;9.40;99.90
12700;DHT22;6414;49.570;6.060;2022-12-24T04:52:33;9.40;99.90
12700;DHT22;6414;49.570;6.060;2022-12-24T04:55:19;9.40;99.90
12700;DHT22;6414;49.570;6.060;2022-12-24T04:58:04;9.40;99.90
12700;DHT22;6414;49.570;6.060;2022-12-24T05:00:50;9.40;99.90
12700;DHT22;6414;49.570;6.060;2022-12-24T05:03:36;9.40;99.90
12700;DHT22;6414;49.570;6.060;2022-12-24T05:06:22;9.40;99.90
12700;DHT22;6414;49.570;6.060;2022-12-24T05:09:07;9.30;99.90
12700;DHT22;6414;49.570;6.060;2022-12-24T05:11:53;9.40;99.90
12700;DHT22;6414;49.570;6.060;2022-12-24T05:14:38;9.40;99.90
12700;DHT22;6414;49.570;6.060;2022-12-24T05:17:24;9.40;99.90
12700;DHT22;6414;49.570;6.060;2022-12-24T05:20:09;9.40;99.90
12700;DHT22;6414;49.570;6.060;2022-12-24T05:22:54;9.40;99.90
12700;DHT22;6414;49.570;6.060;2022-12-24T05:25:58;9.40;99.90
12700;DHT22;6414;49.570;6.060;2022-12-24T05:29:02;9.30;99.90
12700;DHT22;6414;49.570;6.060;2022-12-24T05:31:48;9.40;99.90
12700;DHT22;6414;49.570;6.060;2022-12-24T05:34:33;9.40;99.90
12700;DHT22;6414;49.570;6.060;2022-12-24T05:37:19;9.30;99.90
12700;DHT22;6414;49.570;6.060;2022-12-24T05:40:05;9.30;99.90
12700;DHT22;6414;49.570;6.060;2022-12-24T05:42:50;9.40;99.90
12700;DHT22;6414;49.570;6.060;2022-12-24T05:45:35;9.30;99.90
12700;DHT22;6414;49.570;6.060;2022-12-24T05:48:21;9.30;99.90
12700;DHT22;6414;49.570;6.060;2022-12-24T05:51:07;9.40;99.90
12700;DHT22;6414;49.570;6.060;2022-12-24T05:53:52;9.40;99.90
12700;DHT22;6414;49.570;6.060;2022-12-24T05:56:37;9.40;99.90
12700;DHT22;6414;49.570;6.060;2022-12-24T05:59:23;9.30;99.90
12700;DHT22;6414;49.570;6.060;2022-12-24T06:02:08;9.40;99.90
12700;DHT22;6414;49.570;6.060;2022-12-24T06:04:54;9.40;99.90
12700;DHT22;6414;49.570;6.060;2022-12-24T06:07:40;9.30;99.90
12700;DHT22;6414;49.570;6.060;2022-12-24T06:10:25;9.40;99.90
12700;DHT22;6414;49.570;6.060;2022-12-24T06:13:10;9.30;99.90
12700;DHT22;6414;49.570;6.060;2022-12-24T06:15:56;9.40;99.90
12700;DHT22;6414;49.570;6.060;2022-12-24T06:18:42;9.30;99.90
12700;DHT22;6414;49.570;6.060;2022-12-24T06:21:27;9.30;99.90
12700;DHT22;6414;49.570;6.060;2022-12-24T06:24:13;9.30;99.90
12700;DHT22;6414;49.570;6.060;2022-12-24T06:26:59;9.30;99.90
12700;DHT22;6414;49.570;6.060;2022-12-24T06:29:44;9.30;99.90
12700;DHT22;6414;49.570;6.060;2022-12-24T06:32:30;9.30;99.90
12700;DHT22;6414;49.570;6.060;2022-12-24T06:35:15;9.30;99.90
12700;DHT22;6414;49.570;6.060;2022-12-24T06:38:00;9.30;99.90
12700;DHT22;6414;49.570;6.060;2022-12-24T06:40:46;9.30;99.90
12700;DHT22;6414;49.570;6.060;2022-12-24T06:43:32;9.30;99.90
12700;DHT22;6414;49.570;6.060;2022-12-24T06:46:20;9.30;99.90
12700;DHT22;6414;49.570;6.060;2022-12-24T06:49:05;9.30;99.90
12700;DHT22;6414;49.570;6.060;2022-12-24T06:51:50;9.30;99.90
12700;DHT22;6414;49.570;6.060;2022-12-24T06:54:36;9.30;99.90
12700;DHT22;6414;49.570;6.060;2022-12-24T06:57:22;9.30;99.90
12700;DHT22;6414;49.570;6.060;2022-12-24T07:00:08;9.30;99.90
12700;DHT22;6414;49.570;6.060;2022-12-24T07:02:53;9.30;99.90
12700;DHT22;6414;49.570;6.060;2022-12-24T07:05:39;9.30;99.90
12700;DHT22;6414;49.570;6.060;2022-12-24T07:08:25;9.30;99.90
12700;DHT22;6414;49.570;6.060;2022-12-24T07:11:10;9.30;99.90
12700;DHT22;6414;49.570;6.060;2022-12-24T07:13:56;9.30;99.90
12700;DHT22;6414;49.570;6.060;2022-12-24T07:16:42;9.30;99.90
12700;DHT22;6414;49.570;6.060;2022-12-24T07:19:28;9.20;99.90
12700;DHT22;6414;49.570;6.060;2022-12-24T07:22:14;9.20;99.90
12700;DHT22;6414;49.570;6.060;2022-12-24T07:24:59;9.20;99.90
12700;DHT22;6414;49.570;6.060;2022-12-24T07:27:46;9.10;99.90
12700;DHT22;6414;49.570;6.060;2022-12-24T07:30:31;9.10;99.90
12700;DHT22;6414;49.570;6.060;2022-12-24T07:33:17;9.10;99.90
12700;DHT22;6414;49.570;6.060;2022-12-24T07:36:06;9.10;99.90
12700;DHT22;6414;49.570;6.060;2022-12-24T07:38:50;9.20;99.90
12700;DHT22;6414;49.570;6.060;2022-12-24T07:41:36;9.20;99.90
12700;DHT22;6414;49.570;6.060;2022-12-24T07:44:22;9.20;99.90
12700;DHT22;6414;49.570;6.060;2022-12-24T07:47:08;9.30;99.90
12700;DHT22;6414;49.570;6.060;2022-12-24T07:49:54;9.20;99.90
12700;DHT22;6414;49.570;6.060;2022-12-24T07:52:40;9.20;99.90
12700;DHT22;6414;49.570;6.060;2022-12-24T07:55:25;9.20;99.90
12700;DHT22;6414;49.570;6.060;2022-12-24T07:58:10;9.20;99.90
12700;DHT22;6414;49.570;6.060;2022-12-24T08:00:57;9.20;99.90
12700;DHT22;6414;49.570;6.060;2022-12-24T08:03:42;9.20;99.90
12700;DHT22;6414;49.570;6.060;2022-12-24T08:06:28;9.30;99.90
12700;DHT22;6414;49.570;6.060;2022-12-24T08:09:14;9.30;99.90
12700;DHT22;6414;49.570;6.060;2022-12-24T08:12:00;9.30;99.90
12700;DHT22;6414;49.570;6.060;2022-12-24T08:14:46;9.30;99.90
12700;DHT22;6414;49.570;6.060;2022-12-24T08:17:32;9.30;99.90
12700;DHT22;6414;49.570;6.060;2022-12-24T08:20:18;9.40;99.90
12700;DHT22;6414;49.570;6.060;2022-12-24T08:23:03;9.40;99.90
12700;DHT22;6414;49.570;6.060;2022-12-24T08:25:49;9.30;99.90
12700;DHT22;6414;49.570;6.060;2022-12-24T08:28:35;9.40;99.90
12700;DHT22;6414;49.570;6.060;2022-12-24T08:31:20;9.40;99.90
12700;DHT22;6414;49.570;6.060;2022-12-24T08:34:06;9.40;99.90
12700;DHT22;6414;49.570;6.060;2022-12-24T08:36:53;9.40;99.90
12700;DHT22;6414;49.570;6.060;2022-12-24T08:39:40;9.40;99.90
12700;DHT22;6414;49.570;6.060;2022-12-24T08:42:25;9.40;99.90
12700;DHT22;6414;49.570;6.060;2022-12-24T08:45:12;9.50;99.90
12700;DHT22;6414;49.570;6.060;2022-12-24T08:47:58;9.50;99.90
12700;DHT22;6414;49.570;6.060;2022-12-24T08:50:44;9.50;99.90
12700;DHT22;6414;49.570;6.060;2022-12-24T08:53:29;9.60;99.90
12700;DHT22;6414;49.570;6.060;2022-12-24T08:56:15;9.60;99.90
12700;DHT22;6414;49.570;6.060;2022-12-24T08:59:00;9.50;99.90
12700;DHT22;6414;49.570;6.060;2022-12-24T09:01:45;9.50;99.90
12700;DHT22;6414;49.570;6.060;2022-12-24T09:04:31;9.60;99.90
12700;DHT22;6414;49.570;6.060;2022-12-24T09:07:17;9.60;99.90
12700;DHT22;6414;49.570;6.060;2022-12-24T09:10:02;9.60;99.90
12700;DHT22;6414;49.570;6.060;2022-12-24T09:12:48;9.60;99.90
12700;DHT22;6414;49.570;6.060;2022-12-24T09:15:33;9.70;99.90
12700;DHT22;6414;49.570;6.060;2022-12-24T09:18:19;9.80;99.90
12700;DHT22;6414;49.570;6.060;2022-12-24T09:21:06;9.90;99.90
12700;DHT22;6414;49.570;6.060;2022-12-24T09:23:50;9.90;99.90
12700;DHT22;6414;49.570;6.060;2022-12-24T09:26:36;9.90;99.90
12700;DHT22;6414;49.570;6.060;2022-12-24T09:29:21;9.90;99.90
12700;DHT22;6414;49.570;6.060;2022-12-24T09:32:07;10.00;99.90
12700;DHT22;6414;49.570;6.060;2022-12-24T09:34:52;9.90;99.90
12700;DHT22;6414;49.570;6.060;2022-12-24T09:37:37;9.90;99.90
12700;DHT22;6414;49.570;6.060;2022-12-24T09:40:24;9.90;99.90
12700;DHT22;6414;49.570;6.060;2022-12-24T09:43:16;9.90;99.90
12700;DHT22;6414;49.570;6.060;2022-12-24T09:49:01;9.90;99.90
12700;DHT22;6414;49.570;6.060;2022-12-24T09:51:47;9.90;99.90
12700;DHT22;6414;49.570;6.060;2022-12-24T09:54:34;9.90;99.90
12700;DHT22;6414;49.570;6.060;2022-12-24T09:57:33;9.90;99.90
12700;DHT22;6414;49.570;6.060;2022-12-24T10:00:28;9.90;99.90
12700;DHT22;6414;49.570;6.060;2022-12-24T10:03:16;9.80;99.90
12700;DHT22;6414;49.570;6.060;2022-12-24T10:06:22;9.80;99.90
12700;DHT22;6414;49.570;6.060;2022-12-24T10:09:15;9.90;99.90
12700;DHT22;6414;49.570;6.060;2022-12-24T10:12:21;9.90;99.90
12700;DHT22;6414;49.570;6.060;2022-12-24T10:15:22;10.00;99.90
12700;DHT22;6414;49.570;6.060;2022-12-24T10:18:20;10.00;99.90
12700;DHT22;6414;49.570;6.060;2022-12-24T10:21:09;10.10;99.90
12700;DHT22;6414;49.570;6.060;2022-12-24T10:24:15;10.20;99.90
12700;DHT22;6414;49.570;6.060;2022-12-24T10:27:10;10.20;99.90
12700;DHT22;6414;49.570;6.060;2022-12-24T10:29:53;10.20;99.90
12700;DHT22;6414;49.570;6.060;2022-12-24T10:32:37;10.40;99.90
12700;DHT22;6414;49.570;6.060;2022-12-24T10:35:28;10.30;99.90
12700;DHT22;6414;49.570;6.060;2022-12-24T10:38:09;10.30;99.90
12700;DHT22;6414;49.570;6.060;2022-12-24T10:40:54;10.20;99.90
12700;DHT22;6414;49.570;6.060;2022-12-24T10:43:40;10.20;99.90
12700;DHT22;6414;49.570;6.060;2022-12-24T10:46:34;10.20;99.90
12700;DHT22;6414;49.570;6.060;2022-12-24T10:49:30;10.30;99.90
12700;DHT22;6414;49.570;6.060;2022-12-24T10:52:16;10.30;99.90
12700;DHT22;6414;49.570;6.060;2022-12-24T10:58:09;10.20;99.90
12700;DHT22;6414;49.570;6.060;2022-12-24T11:00:52;10.20;99.90
12700;DHT22;6414;49.570;6.060;2022-12-24T11:03:38;10.00;99.90
12700;DHT22;6414;49.570;6.060;2022-12-24T11:06:23;10.00;99.90
12700;DHT22;6414;49.570;6.060;2022-12-24T11:09:19;9.90;99.90
12700;DHT22;6414;49.570;6.060;2022-12-24T11:11:58;9.90;99.90
12700;DHT22;6414;49.570;6.060;2022-12-24T11:14:43;9.80;99.90
12700;DHT22;6414;49.570;6.060;2022-12-24T11:17:30;9.90;99.90
12700;DHT22;6414;49.570;6.060;2022-12-24T11:20:16;9.80;99.90
12700;DHT22;6414;49.570;6.060;2022-12-24T11:23:01;9.70;99.90
12700;DHT22;6414;49.570;6.060;2022-12-24T11:25:48;9.80;99.90
12700;DHT22;6414;49.570;6.060;2022-12-24T11:28:33;9.90;99.90
12700;DHT22;6414;49.570;6.060;2022-12-24T11:31:19;9.90;99.90
12700;DHT22;6414;49.570;6.060;2022-12-24T11:37:15;10.00;99.90
12700;DHT22;6414;49.570;6.060;2022-12-24T11:39:59;10.00;99.90
12700;DHT22;6414;49.570;6.060;2022-12-24T11:42:45;10.10;99.90
12700;DHT22;6414;49.570;6.060;2022-12-24T11:45:31;10.20;99.90
12700;DHT22;6414;49.570;6.060;2022-12-24T11:48:27;10.20;99.90
12700;DHT22;6414;49.570;6.060;2022-12-24T11:51:21;10.30;99.90
12700;DHT22;6414;49.570;6.060;2022-12-24T11:54:08;10.30;99.90
12700;DHT22;6414;49.570;6.060;2022-12-24T11:56:54;10.30;99.90
12700;DHT22;6414;49.570;6.060;2022-12-24T11:59:41;10.20;99.90
12700;DHT22;6414;49.570;6.060;2022-12-24T12:02:30;10.20;99.90
12700;DHT22;6414;49.570;6.060;2022-12-24T12:05:24;10.20;99.90
12700;DHT22;6414;49.570;6.060;2022-12-24T12:08:15;10.10;99.90
12700;DHT22;6414;49.570;6.060;2022-12-24T12:10:59;9.90;99.90
12700;DHT22;6414;49.570;6.060;2022-12-24T12:13:44;10.00;99.90
12700;DHT22;6414;49.570;6.060;2022-12-24T12:16:55;10.00;99.90
12700;DHT22;6414;49.570;6.060;2022-12-24T12:19:47;10.00;99.90
12700;DHT22;6414;49.570;6.060;2022-12-24T12:25:49;10.00;99.90
12700;DHT22;6414;49.570;6.060;2022-12-24T12:28:35;10.00;99.90
12700;DHT22;6414;49.570;6.060;2022-12-24T12:31:31;9.90;99.90
12700;DHT22;6414;49.570;6.060;2022-12-24T12:34:38;9.90;99.90
12700;DHT22;6414;49.570;6.060;2022-12-24T12:37:27;9.90;99.90
12700;DHT22;6414;49.570;6.060;2022-12-24T12:40:16;9.90;99.90
12700;DHT22;6414;49.570;6.060;2022-12-24T12:45:59;9.90;99.90
12700;DHT22;6414;49.570;6.060;2022-12-24T12:49:08;10.00;99.90
12700;DHT22;6414;49.570;6.060;2022-12-24T12:51:56;10.10;99.90
12700;DHT22;6414;49.570;6.060;2022-12-24T12:54:52;10.00;99.90
12700;DHT22;6414;49.570;6.060;2022-12-24T12:57:35;9.90;99.90
12700;DHT22;6414;49.570;6.060;2022-12-24T13:00:21;9.80;99.90
12700;DHT22;6414;49.570;6.060;2022-12-24T13:06:28;9.80;99.90
12700;DHT22;6414;49.570;6.060;2022-12-24T13:09:18;9.70;99.90
12700;DHT22;6414;49.570;6.060;2022-12-24T13:20:56;9.60;99.90
12700;DHT22;6414;49.570;6.060;2022-12-24T13:23:42;9.60;99.90
12700;DHT22;6414;49.570;6.060;2022-12-24T13:26:28;9.50;99.90
12700;DHT22;6414;49.570;6.060;2022-12-24T13:38:30;9.50;99.90
12700;DHT22;6414;49.570;6.060;2022-12-24T13:44:18;9.60;99.90
12700;DHT22;6414;49.570;6.060;2022-12-24T13:47:14;9.70;99.90
12700;DHT22;6414;49.570;6.060;2022-12-24T13:49:50;9.60;99.90
12700;DHT22;6414;49.570;6.060;2022-12-24T13:52:34;9.70;99.90
12700;DHT22;6414;49.570;6.060;2022-12-24T13:55:19;9.70;99.90
12700;DHT22;6414;49.570;6.060;2022-12-24T13:58:05;9.60;99.90
12700;DHT22;6414;49.570;6.060;2022-12-24T14:00:58;9.60;99.90
12700;DHT22;6414;49.570;6.060;2022-12-24T14:03:50;9.50;99.90
12700;DHT22;6414;49.570;6.060;2022-12-24T14:06:38;9.60;99.90
12700;DHT22;6414;49.570;6.060;2022-12-24T14:09:23;9.50;99.90
12700;DHT22;6414;49.570;6.060;2022-12-24T14:14:54;9.60;99.90
12700;DHT22;6414;49.570;6.060;2022-12-24T14:17:40;9.50;99.90
12700;DHT22;6414;49.570;6.060;2022-12-24T14:20:25;9.60;99.90
12700;DHT22;6414;49.570;6.060;2022-12-24T14:23:17;9.60;99.90
12700;DHT22;6414;49.570;6.060;2022-12-24T14:25:59;9.60;99.90
12700;DHT22;6414;49.570;6.060;2022-12-24T14:28:53;9.60;99.90
12700;DHT22;6414;49.570;6.060;2022-12-24T14:31:37;9.60;99.90
12700;DHT22;6414;49.570;6.060;2022-12-24T14:34:23;9.60;99.90
12700;DHT22;6414;49.570;6.060;2022-12-24T14:37:09;9.70;99.90
12700;DHT22;6414;49.570;6.060;2022-12-24T14:39:54;9.60;99.90
12700;DHT22;6414;49.570;6.060;2022-12-24T14:46:18;9.50;99.90
12700;DHT22;6414;49.570;6.060;2022-12-24T14:49:03;9.50;99.90
12700;DHT22;6414;49.570;6.060;2022-12-24T14:52:51;9.40;99.90
12700;DHT22;6414;49.570;6.060;2022-12-24T14:54:43;9.30;99.90
12700;DHT22;6414;49.570;6.060;2022-12-24T14:57:27;9.40;99.90
12700;DHT22;6414;49.570;6.060;2022-12-24T15:00:19;9.40;99.90
12700;DHT22;6414;49.570;6.060;2022-12-24T15:03:07;9.40;99.90
12700;DHT22;6414;49.570;6.060;2022-12-24T15:06:01;9.40;99.90
12700;DHT22;6414;49.570;6.060;2022-12-24T15:08:46;9.30;99.90
12700;DHT22;6414;49.570;6.060;2022-12-24T15:11:30;9.40;99.90
12700;DHT22;6414;49.570;6.060;2022-12-24T15:14:16;9.40;99.90
12700;DHT22;6414;49.570;6.060;2022-12-24T15:17:01;9.40;99.90
12700;DHT22;6414;49.570;6.060;2022-12-24T15:19:47;9.30;99.90
12700;DHT22;6414;49.570;6.060;2022-12-24T15:22:32;9.30;99.90
12700;DHT22;6414;49.570;6.060;2022-12-24T15:25:19;9.30;99.90
12700;DHT22;6414;49.570;6.060;2022-12-24T15:28:13;9.30;99.90
12700;DHT22;6414;49.570;6.060;2022-12-24T15:30:57;9.30;99.90
12700;DHT22;6414;49.570;6.060;2022-12-24T15:33:35;9.30;99.90
12700;DHT22;6414;49.570;6.060;2022-12-24T15:36:30;9.40;99.90
12700;DHT22;6414;49.570;6.060;2022-12-24T15:39:16;9.40;99.90
12700;DHT22;6414;49.570;6.060;2022-12-24T15:42:01;9.40;99.90
12700;DHT22;6414;49.570;6.060;2022-12-24T15:45:04;9.30;99.90
12700;DHT22;6414;49.570;6.060;2022-12-24T15:47:48;9.30;99.90
12700;DHT22;6414;49.570;6.060;2022-12-24T15:50:34;9.30;99.90
12700;DHT22;6414;49.570;6.060;2022-12-24T15:53:34;9.30;99.90
12700;DHT22;6414;49.570;6.060;2022-12-24T15:56:43;9.30;99.90
12700;DHT22;6414;49.570;6.060;2022-12-24T15:59:29;9.30;99.90
12700;DHT22;6414;49.570;6.060;2022-12-24T16:02:33;9.20;99.90
12700;DHT22;6414;49.570;6.060;2022-12-24T16:05:33;9.20;99.90
12700;DHT22;6414;49.570;6.060;2022-12-24T16:08:21;9.20;99.90
12700;DHT22;6414;49.570;6.060;2022-12-24T16:11:13;9.10;99.90
12700;DHT22;6414;49.570;6.060;2022-12-24T16:14:10;9.20;99.90
12700;DHT22;6414;49.570;6.060;2022-12-24T16:16:54;9.10;99.90
12700;DHT22;6414;49.570;6.060;2022-12-24T16:19:40;9.20;99.90
12700;DHT22;6414;49.570;6.060;2022-12-24T16:22:26;9.20;99.90
12700;DHT22;6414;49.570;6.060;2022-12-24T16:28:03;9.20;99.90
12700;DHT22;6414;49.570;6.060;2022-12-24T16:30:48;9.10;99.90
12700;DHT22;6414;49.570;6.060;2022-12-24T16:33:33;9.20;99.90
12700;DHT22;6414;49.570;6.060;2022-12-24T16:36:19;9.10;99.90
12700;DHT22;6414;49.570;6.060;2022-12-24T16:39:04;9.10;99.90
12700;DHT22;6414;49.570;6.060;2022-12-24T16:42:08;9.10;99.90
12700;DHT22;6414;49.570;6.060;2022-12-24T16:45:12;9.20;99.90
12700;DHT22;6414;49.570;6.060;2022-12-24T16:47:57;9.20;99.90
12700;DHT22;6414;49.570;6.060;2022-12-24T16:50:42;9.20;99.90
12700;DHT22;6414;49.570;6.060;2022-12-24T16:53:28;9.10;99.90
12700;DHT22;6414;49.570;6.060;2022-12-24T16:56:14;9.20;99.90
12700;DHT22;6414;49.570;6.060;2022-12-24T16:59:00;9.20;99.90
12700;DHT22;6414;49.570;6.060;2022-12-24T17:01:45;9.20;99.90
12700;DHT22;6414;49.570;6.060;2022-12-24T17:04:31;9.20;99.90
12700;DHT22;6414;49.570;6.060;2022-12-24T17:07:17;9.20;99.90
12700;DHT22;6414;49.570;6.060;2022-12-24T17:10:02;9.20;99.90
12700;DHT22;6414;49.570;6.060;2022-12-24T17:12:48;9.10;99.90
12700;DHT22;6414;49.570;6.060;2022-12-24T17:15:34;9.10;99.90
12700;DHT22;6414;49.570;6.060;2022-12-24T17:18:19;9.20;99.90
12700;DHT22;6414;49.570;6.060;2022-12-24T17:21:04;9.20;99.90
12700;DHT22;6414;49.570;6.060;2022-12-24T17:23:49;9.20;99.90
12700;DHT22;6414;49.570;6.060;2022-12-24T17:26:35;9.10;99.90
12700;DHT22;6414;49.570;6.060;2022-12-24T17:29:20;9.10;99.90
12700;DHT22;6414;49.570;6.060;2022-12-24T17:32:06;9.10;99.90
12700;DHT22;6414;49.570;6.060;2022-12-24T17:34:52;9.00;99.90
12700;DHT22;6414;49.570;6.060;2022-12-24T17:37:37;9.00;99.90
12700;DHT22;6414;49.570;6.060;2022-12-24T17:40:23;9.10;99.90
12700;DHT22;6414;49.570;6.060;2022-12-24T17:43:08;9.10;99.90
12700;DHT22;6414;49.570;6.060;2022-12-24T17:45:54;9.10;99.90
12700;DHT22;6414;49.570;6.060;2022-12-24T17:48:40;9.10;99.90
12700;DHT22;6414;49.570;6.060;2022-12-24T17:51:25;9.00;99.90
12700;DHT22;6414;49.570;6.060;2022-12-24T17:54:11;9.00;99.90
12700;DHT22;6414;49.570;6.060;2022-12-24T17:56:57;9.00;99.90
12700;DHT22;6414;49.570;6.060;2022-12-24T17:59:42;9.00;99.90
12700;DHT22;6414;49.570;6.060;2022-12-24T18:02:28;9.00;99.90
12700;DHT22;6414;49.570;6.060;2022-12-24T18:05:14;9.00;99.90
12700;DHT22;6414;49.570;6.060;2022-12-24T18:08:00;9.00;99.90
12700;DHT22;6414;49.570;6.060;2022-12-24T18:10:45;9.10;99.90
12700;DHT22;6414;49.570;6.060;2022-12-24T18:13:30;9.10;99.90
12700;DHT22;6414;49.570;6.060;2022-12-24T18:16:20;9.10;99.90
12700;DHT22;6414;49.570;6.060;2022-12-24T18:19:01;9.20;99.90
12700;DHT22;6414;49.570;6.060;2022-12-24T18:21:47;9.10;99.90
12700;DHT22;6414;49.570;6.060;2022-12-24T18:24:33;9.10;99.90
12700;DHT22;6414;49.570;6.060;2022-12-24T18:27:18;9.00;99.90
12700;DHT22;6414;49.570;6.060;2022-12-24T18:30:04;9.00;99.90
12700;DHT22;6414;49.570;6.060;2022-12-24T18:32:49;9.00;99.90
12700;DHT22;6414;49.570;6.060;2022-12-24T18:35:35;9.00;99.90
12700;DHT22;6414;49.570;6.060;2022-12-24T18:38:20;9.10;99.90
12700;DHT22;6414;49.570;6.060;2022-12-24T18:41:13;9.10;99.90
12700;DHT22;6414;49.570;6.060;2022-12-24T18:43:58;9.10;99.90
12700;DHT22;6414;49.570;6.060;2022-12-24T18:46:44;9.00;99.90
12700;DHT22;6414;49.570;6.060;2022-12-24T18:49:30;9.00;99.90
12700;DHT22;6414;49.570;6.060;2022-12-24T18:52:16;9.00;99.90
12700;DHT22;6414;49.570;6.060;2022-12-24T18:55:02;9.00;99.90
12700;DHT22;6414;49.570;6.060;2022-12-24T18:57:47;8.90;99.90
12700;DHT22;6414;49.570;6.060;2022-12-24T19:00:33;8.90;99.90
12700;DHT22;6414;49.570;6.060;2022-12-24T19:03:19;8.90;99.90
12700;DHT22;6414;49.570;6.060;2022-12-24T19:06:05;8.90;99.90
12700;DHT22;6414;49.570;6.060;2022-12-24T19:08:50;8.90;99.90
12700;DHT22;6414;49.570;6.060;2022-12-24T19:11:36;8.90;99.90